D/T METAR WX W/SPE G/SPE TEMP DEWP FEEL
31/01/23 12:20 EGXT 311220Z AUTO 29026KT 9999 NCD 10/02 Q1020 29.9mph 10°C 2°C 8.4°C
31/01/23 04:20 EGXT 310420Z AUTO 24019KT 9999 OVC051/// 06/03 Q1021 21.9mph 6°C 3°C 4.7°C
30/01/23 21:50 EGXT 302150Z AUTO 22007KT 9999 BKN098/// 03/01 Q1025 8.1mph 3°C 1°C 1.1°C
30/01/23 12:50 EGXT 301250Z AUTO 29016KT 9999 NCD 09/03 Q1023 18.4mph 9°C 3°C 7.7°C
30/01/23 11:50 EGXT 301150Z AUTO 28019G29KT 9999 FEW024/// 08/03 Q1023 21.9mph 33.4mph 8°C 3°C 6.7°C
30/01/23 10:20 EGXT 301020Z AUTO 27018KT 9999 NCD 07/03 Q1022 20.7mph 7°C 3°C 5.7°C
30/01/23 09:50 EGXT 300950Z AUTO 26018KT 9999 NCD 07/02 Q1022 20.7mph 7°C 2°C 5.4°C
30/01/23 07:50 EGXT 300750Z AUTO 26017KT 9999 BKN031/// 05/01 Q1021 19.6mph 5°C 1°C 3.1°C
09/01/23 06:20 EGXT 090620Z AUTO 25014KT 9999 FEW220/// 05/03 Q0992 16.1mph 5°C 3°C 3.7°C
09/01/23 05:50 EGXT 090550Z AUTO 24014KT 9999 BKN170/// 05/03 Q0991 16.1mph 5°C 3°C 3.7°C
09/01/23 05:20 EGXT 090520Z AUTO 25012KT 9999 OVC160/// 05/03 Q0991 13.8mph 5°C 3°C 3.7°C
09/01/23 04:50 EGXT 090450Z AUTO 25012KT 9999 OVC130/// 05/03 Q0990 13.8mph 5°C 3°C 3.7°C
09/01/23 04:20 EGXT 090420Z AUTO 25012KT 9999 OVC130/// 05/03 Q0990 13.8mph 5°C 3°C 3.7°C
09/01/23 03:50 EGXT 090350Z AUTO 24010KT 9999 OVC140/// 04/03 Q0990 11.5mph 4°C 3°C 2.7°C
09/01/23 03:20 EGXT 090320Z AUTO 25009KT 9999 OVC180/// 04/03 Q0990 10.4mph 4°C 3°C 2.7°C
09/01/23 02:50 EGXT 090250Z AUTO 24009KT 9999 OVC170/// 04/03 Q0989 10.4mph 4°C 3°C 2.7°C
09/01/23 02:20 EGXT 090220Z AUTO 24010KT 9999 OVC170/// 04/03 Q0989 11.5mph 4°C 3°C 2.7°C
09/01/23 01:20 EGXT 090120Z AUTO 19006KT 9999 OVC030/// 02/02 Q0988 6.9mph 2°C 2°C 0.4°C
09/01/23 00:50 EGXT 090050Z AUTO 21006KT 9999 SCT031/// 02/02 Q0988 6.9mph 2°C 2°C 0.4°C
09/01/23 00:20 EGXT 090020Z AUTO 21008KT 9999 NCD 02/02 Q0987 9.2mph 2°C 2°C 0.4°C
08/01/23 23:50 EGXT 082350Z AUTO 21010KT 9999 NCD 02/02 Q0987 11.5mph 2°C 2°C 0.4°C
08/01/23 23:20 EGXT 082320Z AUTO 22007KT 9999 NCD 02/01 Q0987 8.1mph 2°C 1°C 0.1°C
08/01/23 22:50 EGXT 082250Z AUTO 21004KT 9999 NCD 02/01 Q0987 4.6mph 2°C 1°C 0.1°C
08/01/23 22:20 EGXT 082220Z AUTO 18008KT 9999 SCT200/// 03/02 Q0987 9.2mph 3°C 2°C 1.4°C
08/01/23 21:50 EGXT 082150Z AUTO 19008KT 9999 OVC180/// 03/02 Q0987 9.2mph 3°C 2°C 1.4°C
08/01/23 20:20 EGXT 082020Z AUTO 19010KT 9999 FEW180/// 03/02 Q0987 11.5mph 3°C 2°C 1.4°C
08/01/23 19:20 EGXT 081920Z AUTO 21008KT 9999 OVC140/// 05/02 Q0987 9.2mph 5°C 2°C 3.4°C
08/01/23 18:50 EGXT 081850Z AUTO 22010KT 9999 OVC120/// 05/02 Q0986 11.5mph 5°C 2°C 3.4°C
08/01/23 18:20 EGXT 081820Z AUTO 22010KT 9999 // SCT064/// BKN100/// 06/03 Q0986 11.5mph 6°C 3°C 4.7°C
08/01/23 17:50 EGXT 081750Z AUTO 22013KT 9999 // FEW036/// SCT043/// 06/03 Q0986 15.0mph 6°C 3°C 4.7°C
08/01/23 17:20 EGXT 081720Z AUTO 21015KT 9999 -RA OVC029/// 07/04 Q0986 -RA 17.3mph 7°C 4°C 6.0°C
08/01/23 16:50 EGXT 081650Z AUTO 20010KT 9999 OVC035/// 07/04 Q0986 11.5mph 7°C 4°C 6.0°C
08/01/23 16:20 EGXT 081620Z AUTO 19011KT 9999 FEW039/// OVC150/// 06/04 Q0986 12.7mph 6°C 4°C 5.0°C
08/01/23 15:50 EGXT 081550Z AUTO 19015KT 9999 OVC140/// 07/04 Q0986 17.3mph 7°C 4°C 6.0°C
08/01/23 15:20 EGXT 081520Z AUTO 20013KT 9999 FEW019/// OVC110/// 07/04 Q0986 15.0mph 7°C 4°C 6.0°C
08/01/23 14:20 EGXT 081420Z AUTO 19018KT 9999 SCT021/// 08/04 Q0986 20.7mph 8°C 4°C 7.0°C
08/01/23 13:50 EGXT 081350Z AUTO 20018KT 9999 OVC021/// 08/05 Q0987 20.7mph 8°C 5°C 7.3°C
08/01/23 13:20 EGXT 081320Z AUTO 19019KT 9999 OVC020/// 08/05 Q0987 21.9mph 8°C 5°C 7.3°C
08/01/23 12:50 EGXT 081250Z AUTO 18016KT 9999 OVC019/// 09/05 Q0987 18.4mph 9°C 5°C 8.3°C
08/01/23 12:20 EGXT 081220Z AUTO 18020G30KT 9999 OVC018/// 09/05 Q0988 23.0mph 34.5mph 9°C 5°C 8.3°C
08/01/23 11:50 EGXT 081150Z AUTO 17014KT 9999 OVC017/// 09/06 Q0989 16.1mph 9°C 6°C 8.6°C
08/01/23 11:20 EGXT 081120Z AUTO 17012KT 9999 FEW016/// SCT140/// 08/05 Q0989 13.8mph 8°C 5°C 7.3°C
08/01/23 10:50 EGXT 081050Z AUTO 17010KT 9999 BKN140/// 07/05 Q0990 11.5mph 7°C 5°C 6.3°C
08/01/23 10:20 EGXT 081020Z AUTO 17010KT 9999 NCD 06/04 Q0990 11.5mph 6°C 4°C 5.0°C
08/01/23 09:50 EGXT 080950Z AUTO 18009KT 9999 SCT012/// 07/05 Q0991 10.4mph 7°C 5°C 6.3°C
08/01/23 09:20 EGXT 080920Z AUTO 19013KT 9999 NCD 06/04 Q0991 15.0mph 6°C 4°C 5.0°C
08/01/23 08:50 EGXT 080850Z AUTO 19015KT 9999 FEW014/// 06/04 Q0991 17.3mph 6°C 4°C 5.0°C
08/01/23 08:20 EGXT 080820Z AUTO 19013KT 9999 BKN031/// 06/04 Q0991 15.0mph 6°C 4°C 5.0°C
08/01/23 07:50 EGXT 080750Z AUTO 19013KT 9999 FEW018/// 06/04 Q0991 15.0mph 6°C 4°C 5.0°C
08/01/23 07:20 EGXT 080720Z AUTO 20012KT 9999 BKN023/// BKN170/// 06/04 Q0992 13.8mph 6°C 4°C 5.0°C
08/01/23 06:50 EGXT 080650Z AUTO 19014KT 9999 OVC180/// 06/04 Q0992 16.1mph 6°C 4°C 5.0°C
08/01/23 06:20 EGXT 080620Z AUTO 20014KT 9999 FEW230/// 06/04 Q0992 16.1mph 6°C 4°C 5.0°C
08/01/23 05:50 EGXT 080550Z AUTO 19014KT 9999 NCD 06/04 Q0992 16.1mph 6°C 4°C 5.0°C
08/01/23 05:20 EGXT 080520Z AUTO 19013KT 9999 BKN200/// 07/04 Q0992 15.0mph 7°C 4°C 6.0°C
08/01/23 04:50 EGXT 080450Z AUTO 19014KT 9999 OVC190/// 07/05 Q0992 16.1mph 7°C 5°C 6.3°C
08/01/23 04:20 EGXT 080420Z AUTO 19013KT 9999 SCT018/// OVC140/// 07/05 Q0992 15.0mph 7°C 5°C 6.3°C
08/01/23 03:50 EGXT 080350Z AUTO 19014KT 9999 SCT018/// BKN032/// 07/05 Q0992 16.1mph 7°C 5°C 6.3°C
08/01/23 03:20 EGXT 080320Z AUTO 19013KT 9999 SCT021/// SCT035/// 07/05 Q0992 15.0mph 7°C 5°C 6.3°C
08/01/23 02:50 EGXT 080250Z AUTO 20013KT 9999 SCT027/// OVC200/// 07/05 Q0993 15.0mph 7°C 5°C 6.3°C
08/01/23 02:20 EGXT 080220Z AUTO 20012KT 9999 FEW027/// OVC220/// 07/05 Q0993 13.8mph 7°C 5°C 6.3°C
08/01/23 01:50 EGXT 080150Z AUTO 20015G25KT 9999 OVC220/// 07/05 Q0992 17.3mph 28.8mph 7°C 5°C 6.3°C
08/01/23 01:20 EGXT 080120Z AUTO 20015KT 9999 BKN028/// 07/05 Q0992 17.3mph 7°C 5°C 6.3°C
08/01/23 00:20 EGXT 080020Z AUTO 20014KT 9999 FEW035/// 07/05 Q0993 16.1mph 7°C 5°C 6.3°C
07/01/23 23:50 EGXT 072350Z AUTO 19013KT 9999 NCD 06/04 Q0993 15.0mph 6°C 4°C 5.0°C
07/01/23 23:20 EGXT 072320Z AUTO 19014KT 9999 FEW038/// 07/04 Q0993 16.1mph 7°C 4°C 6.0°C
07/01/23 22:50 EGXT 072250Z AUTO 20015KT 9999 BKN033/// 07/04 Q0993 17.3mph 7°C 4°C 6.0°C
07/01/23 22:20 EGXT 072220Z AUTO 20014G24KT 9999 NCD 06/04 Q0993 16.1mph 27.6mph 6°C 4°C 5.0°C
07/01/23 21:50 EGXT 072150Z AUTO 20016KT 9999 FEW042/// 06/04 Q0993 18.4mph 6°C 4°C 5.0°C
07/01/23 21:20 EGXT 072120Z AUTO 20017KT 9999 FEW030/// 06/04 Q0993 19.6mph 6°C 4°C 5.0°C
07/01/23 20:50 EGXT 072050Z AUTO 20017KT 9999 NCD 07/04 Q0993 19.6mph 7°C 4°C 6.0°C
07/01/23 20:20 EGXT 072020Z AUTO 21015KT 9999 FEW018/// 07/05 Q0993 17.3mph 7°C 5°C 6.3°C
07/01/23 19:50 EGXT 071950Z AUTO 22019KT 9999 FEW025/// 07/04 Q0993 21.9mph 7°C 4°C 6.0°C
07/01/23 19:20 EGXT 071920Z AUTO 21016KT 9999 SCT024/// 07/05 Q0992 18.4mph 7°C 5°C 6.3°C
07/01/23 18:50 EGXT 071850Z AUTO 21019KT 9999 // FEW071/// SCT083/// 08/05 Q0992 21.9mph 8°C 5°C 7.3°C
07/01/23 18:20 EGXT 071820Z AUTO 21017KT 9999 // BKN021/// SCT043/// BKN056/// 08/06 Q0992 19.6mph 8°C 6°C 7.6°C
07/01/23 17:50 EGXT 071750Z AUTO 20019KT 9999 -RA FEW017/// BKN043/// 09/06 Q0991 -RA 21.9mph 9°C 6°C 8.6°C
07/01/23 17:20 EGXT 071720Z AUTO 19015KT 9999 -RA FEW034/// BKN045/// BKN100/// 09/06 Q0991 -RA 17.3mph 9°C 6°C 8.6°C
07/01/23 16:50 EGXT 071650Z AUTO 19015KT 9999 BKN081/// 09/07 Q0991 17.3mph 9°C 7°C 9.0°C
07/01/23 16:20 EGXT 071620Z AUTO 18013KT 9999 OVC060/// 10/08 Q0992 15.0mph 10°C 8°C 10.4°C
07/01/23 15:50 EGXT 071550Z AUTO 19014KT 9999 // BKN011/// OVC066/// 11/09 Q0992 16.1mph 11°C 9°C 11.8°C
07/01/23 15:20 EGXT 071520Z AUTO 18013KT 9999 // SCT010/// 10/09 Q0992 15.0mph 10°C 9°C 10.8°C
07/01/23 14:50 EGXT 071450Z AUTO 20012KT 9999 -RA OVC007/// 10/10 Q0992 -RA 13.8mph 10°C 10°C 11.3°C
07/01/23 14:20 EGXT 071420Z AUTO 19012KT 5000 RA OVC004/// 10/09 Q0993 RA 13.8mph 10°C 9°C 10.8°C
07/01/23 13:50 EGXT 071350Z AUTO 21012KT 1800 +RA BKN006/// BKN038/// 10/09 Q0993 +RA 13.8mph 10°C 9°C 10.8°C
07/01/23 12:50 EGXT 071250Z AUTO 18015KT 9999 // OVC013/// 11/09 Q0993 17.3mph 11°C 9°C 11.8°C
07/01/23 12:20 EGXT 071220Z AUTO 18015KT 9999 // OVC009/// 11/09 Q0994 17.3mph 11°C 9°C 11.8°C
07/01/23 11:50 EGXT 071150Z AUTO 18016KT 6000 -RADZ OVC007/// 10/09 Q0995 -RA -DZ 18.4mph 10°C 9°C 10.8°C
07/01/23 11:20 EGXT 071120Z AUTO 18015KT 5000 -RADZ OVC008/// 10/09 Q0995 -RA -DZ 17.3mph 10°C 9°C 10.8°C
07/01/23 10:50 EGXT 071050Z AUTO 17016G26KT 9999 // OVC009/// 10/09 Q0996 18.4mph 29.9mph 10°C 9°C 10.8°C
07/01/23 10:20 EGXT 071020Z AUTO 17018KT 9999 -RA OVC009/// 10/08 Q0996 -RA 20.7mph 10°C 8°C 10.4°C
07/01/23 09:50 EGXT 070950Z AUTO 16018KT 9999 -RA OVC010/// 09/08 Q0996 -RA 20.7mph 9°C 8°C 9.4°C
07/01/23 09:20 EGXT 070920Z AUTO 16018KT 9999 -RA OVC011/// 09/08 Q0996 -RA 20.7mph 9°C 8°C 9.4°C
07/01/23 08:50 EGXT 070850Z AUTO 17020KT 7000 -RA OVC012/// 09/08 Q0997 -RA 23.0mph 9°C 8°C 9.4°C
07/01/23 08:20 EGXT 070820Z AUTO 17019KT 9000 -RA OVC012/// 10/08 Q0997 -RA 21.9mph 10°C 8°C 10.4°C
07/01/23 07:50 EGXT 070750Z AUTO 17020KT 9999 -RA OVC016/// 10/08 Q0997 -RA 23.0mph 10°C 8°C 10.4°C
07/01/23 07:20 EGXT 070720Z AUTO 17020KT 9999 -RA OVC018/// 10/08 Q0998 -RA 23.0mph 10°C 8°C 10.4°C